createdAt,value
2022-10-20T00:01:02.930Z,12.35
2022-10-20T00:03:51.842Z,11.75
2022-10-20T00:06:40.205Z,8.25
2022-10-20T00:09:28.513Z,9.85
2022-10-20T00:12:16.948Z,11.88
2022-10-20T00:15:05.846Z,8.95
2022-10-20T00:17:56.010Z,9.93
2022-10-20T00:20:44.590Z,7.20
2022-10-20T00:23:32.978Z,7.75
2022-10-20T00:26:23.217Z,6.95
2022-10-20T00:29:11.711Z,9.40
2022-10-20T00:32:00.095Z,6.40
2022-10-20T00:34:49.888Z,7.72
2022-10-20T00:37:38.233Z,8.23
2022-10-20T00:40:26.726Z,10.00
2022-10-20T00:43:16.885Z,11.52
2022-10-20T00:46:05.248Z,10.73
2022-10-20T00:48:55.845Z,7.43
2022-10-20T00:51:46.611Z,8.77
2022-10-20T00:54:35.005Z,10.75
2022-10-20T00:57:23.431Z,9.35
2022-10-20T01:00:12.854Z,9.07
2022-10-20T01:03:03.500Z,10.82
2022-10-20T01:05:51.846Z,9.18
2022-10-20T01:08:42.093Z,9.18
2022-10-20T01:11:42.007Z,10.03
2022-10-20T01:14:40.012Z,9.35
2022-10-20T01:17:36.719Z,8.30
2022-10-20T01:20:50.500Z,9.45
2022-10-20T01:24:20.407Z,7.53
2022-10-20T01:27:36.210Z,8.25
2022-10-20T01:30:25.179Z,6.88
2022-10-20T01:33:21.811Z,7.50
2022-10-20T01:36:15.295Z,10.10
2022-10-20T01:39:08.462Z,8.48
2022-10-20T01:42:02.448Z,8.95
2022-10-20T01:44:54.724Z,10.00
2022-10-20T01:47:44.440Z,7.80
2022-10-20T01:50:34.564Z,10.35
2022-10-20T01:53:22.898Z,10.43
2022-10-20T01:56:17.424Z,9.80
2022-10-20T01:59:24.326Z,9.45
2022-10-20T02:02:36.058Z,8.52
2022-10-20T02:05:46.448Z,9.80
2022-10-20T02:08:41.402Z,13.32
2022-10-20T02:11:42.815Z,8.57
2022-10-20T02:14:33.144Z,7.57
2022-10-20T02:17:22.647Z,8.13
2022-10-20T02:20:12.987Z,8.18
2022-10-20T02:23:04.268Z,7.63
2022-10-20T02:25:55.590Z,8.35
2022-10-20T02:28:47.547Z,7.10
2022-10-20T02:31:35.916Z,7.35
2022-10-20T02:34:26.979Z,7.97
2022-10-20T02:40:11.101Z,7.63
2022-10-20T02:42:59.471Z,6.18
2022-10-20T02:45:47.793Z,6.65
2022-10-20T02:48:38.268Z,7.40
2022-10-20T02:51:26.605Z,6.95
2022-10-20T02:54:16.299Z,5.28
2022-10-20T02:57:04.714Z,9.48
2022-10-20T02:59:53.289Z,8.18
2022-10-20T03:02:41.628Z,8.23
2022-10-20T03:05:30.362Z,6.95
2022-10-20T03:08:18.701Z,9.57
2022-10-20T03:11:08.584Z,6.95
2022-10-20T03:13:56.863Z,5.50
2022-10-20T03:16:45.228Z,6.40
2022-10-20T03:19:33.559Z,6.55
2022-10-20T03:22:21.995Z,9.02
2022-10-20T03:25:10.504Z,6.88
2022-10-20T03:28:00.220Z,7.93
2022-10-20T03:30:48.565Z,6.00
2022-10-20T03:33:37.039Z,10.32
2022-10-20T03:36:25.663Z,8.57
2022-10-20T03:39:14.130Z,9.10
2022-10-20T03:42:02.449Z,5.07
2022-10-20T03:44:52.083Z,8.05
2022-10-20T03:47:40.401Z,7.63
2022-10-20T03:50:28.757Z,6.18
2022-10-20T03:53:17.080Z,7.88
2022-10-20T03:56:09.443Z,8.38
2022-10-20T03:58:57.892Z,6.57
2022-10-20T04:01:48.118Z,8.85
2022-10-20T04:04:36.463Z,9.47
2022-10-20T04:07:24.812Z,6.78
2022-10-20T04:10:14.788Z,8.00
2022-10-20T04:13:03.560Z,8.63
2022-10-20T04:15:51.889Z,7.03
2022-10-20T04:18:41.601Z,6.30
2022-10-20T04:21:29.937Z,10.23
2022-10-20T04:24:18.384Z,9.70
2022-10-20T04:27:06.855Z,6.63
2022-10-20T04:29:55.172Z,9.95
2022-10-20T04:32:43.510Z,11.43
2022-10-20T04:35:33.222Z,8.82
2022-10-20T04:38:21.659Z,9.50
2022-10-20T04:41:11.166Z,9.00
2022-10-20T04:43:59.521Z,10.82
2022-10-20T04:46:48.175Z,10.13
2022-10-20T04:49:36.532Z,9.70
2022-10-20T04:52:26.242Z,11.52
2022-10-20T04:55:14.664Z,11.13
2022-10-20T04:58:03.103Z,18.63
2022-10-20T05:00:51.485Z,11.63
2022-10-20T05:03:39.848Z,12.48
2022-10-20T05:06:29.971Z,14.55
2022-10-20T05:09:20.669Z,15.00
2022-10-20T05:12:09.422Z,20.50
2022-10-20T05:14:57.824Z,11.80
2022-10-20T05:17:46.171Z,15.05
2022-10-20T05:20:40.965Z,16.20
2022-10-20T05:23:29.697Z,20.42
2022-10-20T05:26:20.805Z,13.60
2022-10-20T05:31:58.162Z,13.27
2022-10-20T05:34:46.597Z,12.05
2022-10-20T05:37:35.453Z,11.80
2022-10-20T05:40:24.102Z,16.55
2022-10-20T05:43:15.882Z,13.32
2022-10-20T05:46:04.904Z,13.30
2022-10-20T05:48:56.064Z,13.63
2022-10-20T05:54:33.662Z,16.67
2022-10-20T05:57:22.000Z,17.92
2022-10-20T06:00:13.382Z,17.88
2022-10-20T06:03:02.357Z,15.40
2022-10-20T06:05:57.655Z,18.85
2022-10-20T06:08:46.304Z,14.63
2022-10-20T06:11:39.247Z,16.90
2022-10-20T06:14:28.277Z,18.25
2022-10-20T06:17:17.933Z,17.48
2022-10-20T06:20:06.967Z,18.90
2022-10-20T06:22:55.292Z,23.35
2022-10-20T06:25:43.617Z,20.38
2022-10-20T06:28:32.695Z,22.27
2022-10-20T06:31:22.983Z,19.27
2022-10-20T06:34:15.606Z,24.33
2022-10-20T06:37:03.914Z,20.83
2022-10-20T06:39:52.307Z,22.65
2022-10-20T06:42:40.606Z,21.90
2022-10-20T06:45:28.979Z,23.90
2022-10-20T06:48:17.298Z,21.60
2022-10-20T06:51:08.827Z,23.55
2022-10-20T06:53:57.135Z,23.08
2022-10-20T06:56:45.472Z,26.65
2022-10-20T06:59:35.283Z,24.63
2022-10-20T07:02:23.583Z,25.08
2022-10-20T07:05:11.930Z,24.05
2022-10-20T07:08:01.660Z,24.88
2022-10-20T07:10:59.312Z,30.30
2022-10-20T07:13:49.303Z,25.85
2022-10-20T07:16:37.664Z,25.92
2022-10-20T07:19:26.002Z,24.63
2022-10-20T07:22:14.323Z,25.42
2022-10-20T07:25:06.469Z,27.80
2022-10-20T07:27:55.866Z,23.90
2022-10-20T07:30:44.182Z,27.42
2022-10-20T07:33:33.250Z,27.83
2022-10-20T07:36:24.937Z,25.85
2022-10-20T07:39:14.505Z,29.17
2022-10-20T07:42:04.278Z,27.05
2022-10-20T07:44:52.584Z,25.83
2022-10-20T07:47:43.106Z,29.20
2022-10-20T07:50:33.853Z,30.65
2022-10-20T07:53:22.177Z,29.90
2022-10-20T07:56:11.139Z,28.20
2022-10-20T07:59:01.125Z,24.48
2022-10-20T08:01:49.593Z,26.08
2022-10-20T08:04:38.036Z,27.48
2022-10-20T08:07:26.370Z,30.33
2022-10-20T08:10:14.675Z,26.10
2022-10-20T08:13:03.072Z,26.92
2022-10-20T08:15:52.918Z,29.67
2022-10-20T08:18:50.518Z,29.15
2022-10-20T08:21:38.876Z,27.25
2022-10-20T08:24:27.189Z,23.23
2022-10-20T08:27:15.549Z,27.90
2022-10-20T08:30:22.933Z,22.50
2022-10-20T08:33:13.631Z,24.67
2022-10-20T08:36:06.913Z,23.05
2022-10-20T08:38:56.463Z,21.95
2022-10-20T08:42:06.846Z,20.90
2022-10-20T08:44:59.436Z,22.10
2022-10-20T08:47:50.136Z,23.73
2022-10-20T08:50:45.358Z,24.05
2022-10-20T08:53:39.746Z,18.83
2022-10-20T08:56:30.614Z,19.98
2022-10-20T08:59:27.354Z,19.77
2022-10-20T09:02:17.892Z,20.02
2022-10-20T09:05:07.907Z,23.60
2022-10-20T09:07:58.204Z,20.88
2022-10-20T09:10:49.546Z,20.45
2022-10-20T09:13:38.635Z,18.80
2022-10-20T09:16:41.593Z,15.55
2022-10-20T09:19:31.170Z,18.88
2022-10-20T09:22:22.300Z,18.02
2022-10-20T09:28:05.052Z,16.38
2022-10-20T09:30:53.876Z,16.38
2022-10-20T09:33:42.213Z,14.20
2022-10-20T09:36:35.105Z,15.50
2022-10-20T09:39:27.304Z,13.45
2022-10-20T09:42:22.202Z,14.38
2022-10-20T09:45:19.753Z,16.83
2022-10-20T09:48:21.730Z,17.92
2022-10-20T09:51:16.254Z,15.98
2022-10-20T09:54:07.241Z,13.13
2022-10-20T09:57:04.485Z,13.40
2022-10-20T10:00:01.284Z,11.93
2022-10-20T10:03:10.679Z,12.20
2022-10-20T10:06:00.374Z,10.20
2022-10-20T10:08:49.121Z,11.13
2022-10-20T10:11:38.227Z,11.05
2022-10-20T10:14:26.858Z,11.35
2022-10-20T10:17:30.424Z,12.63
2022-10-20T10:20:33.422Z,10.23
2022-10-20T10:23:23.839Z,13.38
2022-10-20T10:26:45.025Z,12.02
2022-10-20T10:29:36.259Z,10.73
2022-10-20T10:32:28.089Z,12.90
2022-10-20T10:35:26.010Z,11.38
2022-10-20T10:38:15.749Z,10.85
2022-10-20T10:41:16.115Z,10.82
2022-10-20T10:44:11.850Z,12.27
2022-10-20T10:47:10.581Z,10.30
2022-10-20T10:50:03.941Z,10.40
2022-10-20T10:53:02.143Z,10.35
2022-10-20T10:55:58.808Z,10.20
2022-10-20T10:58:51.624Z,9.07
2022-10-20T11:02:00.616Z,12.32
2022-10-20T11:05:19.469Z,7.55
2022-10-20T11:08:20.223Z,9.05
2022-10-20T11:11:22.036Z,8.13
2022-10-20T11:17:25.072Z,8.73
2022-10-20T11:23:40.445Z,9.52
2022-10-20T11:26:34.883Z,9.25
2022-10-20T11:29:32.416Z,9.95
2022-10-20T11:32:30.373Z,9.23
2022-10-20T11:35:28.390Z,7.72
2022-10-20T11:38:21.477Z,9.35
2022-10-20T11:41:17.316Z,9.13
2022-10-20T11:44:09.818Z,10.38
2022-10-20T11:47:03.893Z,8.38
2022-10-20T11:49:53.857Z,10.48
2022-10-20T11:52:59.016Z,8.18
2022-10-20T11:56:06.634Z,9.07
2022-10-20T11:59:19.918Z,12.25
2022-10-20T12:02:33.284Z,8.38
2022-10-20T12:05:39.835Z,9.70
2022-10-20T12:08:49.482Z,7.75
2022-10-20T12:11:47.646Z,8.63
2022-10-20T12:14:40.445Z,9.85
2022-10-20T12:17:34.288Z,9.70
2022-10-20T12:21:01.920Z,8.05
2022-10-20T12:24:03.660Z,6.75
2022-10-20T12:27:21.697Z,7.03
2022-10-20T12:30:45.290Z,8.48
2022-10-20T12:33:39.935Z,7.70
2022-10-20T12:36:35.012Z,5.50
2022-10-20T12:39:24.853Z,6.32
2022-10-20T12:42:23.309Z,5.38
2022-10-20T12:45:27.978Z,7.15
2022-10-20T12:48:22.502Z,6.47
2022-10-20T12:51:31.251Z,7.13
2022-10-20T12:54:25.448Z,7.80
2022-10-20T12:57:31.391Z,9.63
2022-10-20T13:00:58.403Z,10.32
2022-10-20T13:03:49.143Z,4.85
2022-10-20T13:06:42.865Z,7.18
2022-10-20T13:09:31.202Z,4.80
2022-10-20T13:12:29.002Z,5.75
2022-10-20T13:15:20.735Z,4.63
2022-10-20T13:18:17.379Z,5.03
2022-10-20T13:21:24.126Z,7.53
2022-10-20T13:24:19.036Z,5.05
2022-10-20T13:27:10.858Z,5.88
2022-10-20T13:29:59.149Z,6.68
2022-10-20T13:33:11.202Z,9.07
2022-10-20T13:36:13.769Z,6.40
2022-10-20T13:39:07.830Z,5.00
2022-10-20T13:42:03.964Z,4.50
2022-10-20T13:44:59.507Z,5.75
2022-10-20T13:47:51.407Z,5.38
2022-10-20T13:50:43.615Z,5.70
2022-10-20T13:53:38.858Z,6.13
2022-10-20T13:56:35.196Z,7.93
2022-10-20T13:59:25.743Z,4.25
2022-10-20T14:02:25.655Z,6.68
2022-10-20T14:05:15.260Z,4.82
2022-10-20T14:08:06.358Z,6.63
2022-10-20T14:10:59.520Z,5.55
2022-10-20T14:13:48.490Z,5.47
2022-10-20T14:16:37.738Z,4.43
2022-10-20T14:19:28.256Z,6.65
2022-10-20T14:22:21.397Z,3.92
2022-10-20T14:25:12.064Z,5.22
2022-10-20T14:28:06.557Z,4.35
2022-10-20T14:30:56.560Z,5.97
2022-10-20T14:33:47.289Z,5.25
2022-10-20T14:36:35.630Z,4.70
2022-10-20T14:39:34.962Z,4.70
2022-10-20T14:42:24.800Z,6.53
2022-10-20T14:45:21.881Z,6.63
2022-10-20T14:48:16.573Z,5.63
2022-10-20T14:51:28.982Z,9.13
2022-10-20T14:54:26.972Z,6.90
2022-10-20T14:57:32.167Z,5.40
2022-10-20T15:00:28.986Z,6.78
2022-10-20T15:03:17.512Z,9.07
2022-10-20T15:06:06.135Z,7.13
2022-10-20T15:08:57.802Z,6.85
2022-10-20T15:11:46.321Z,6.03
2022-10-20T15:14:35.366Z,12.48
2022-10-20T15:17:40.080Z,8.70
2022-10-20T15:20:34.524Z,10.43
2022-10-20T15:23:24.376Z,7.88
2022-10-20T15:26:15.222Z,8.18
2022-10-20T15:29:04.312Z,7.72
2022-10-20T15:31:53.693Z,11.20
2022-10-20T15:34:43.342Z,8.27
2022-10-20T15:37:31.628Z,8.32
2022-10-20T15:40:20.601Z,6.28
2022-10-20T15:43:12.682Z,7.00
2022-10-20T15:46:01.050Z,9.57
2022-10-20T15:48:50.211Z,8.20
2022-10-20T15:51:42.021Z,10.48
2022-10-20T15:54:30.321Z,7.90
2022-10-20T15:57:18.582Z,9.00
2022-10-20T16:00:08.240Z,8.25
2022-10-20T16:02:57.114Z,7.80
2022-10-20T16:05:45.902Z,9.13
2022-10-20T16:08:36.451Z,9.25
2022-10-20T16:11:24.795Z,8.13
2022-10-20T16:14:13.259Z,7.72
2022-10-20T16:17:01.529Z,7.05
2022-10-20T16:19:49.925Z,8.18
2022-10-20T16:22:38.534Z,6.47
2022-10-20T16:25:28.685Z,11.07
2022-10-20T16:28:17.152Z,7.30
2022-10-20T16:31:07.428Z,16.25
2022-10-20T16:33:55.727Z,7.75
2022-10-20T16:36:44.018Z,10.15
2022-10-20T16:39:32.318Z,7.38
2022-10-20T16:42:21.937Z,6.88
2022-10-20T16:45:10.772Z,10.77
2022-10-20T16:47:59.064Z,11.98
2022-10-20T16:50:47.410Z,7.82
2022-10-20T16:53:35.776Z,8.40
2022-10-20T16:56:24.625Z,7.88
2022-10-20T16:59:14.268Z,11.10
2022-10-20T17:02:02.802Z,8.45
2022-10-20T17:04:51.184Z,7.38
2022-10-20T17:07:39.826Z,11.15
2022-10-20T17:10:28.554Z,10.07
2022-10-20T17:13:16.888Z,9.00
2022-10-20T17:16:08.169Z,8.98
2022-10-20T17:18:56.950Z,13.20
2022-10-20T17:21:45.276Z,12.60
2022-10-20T17:24:33.650Z,8.02
2022-10-20T17:27:21.982Z,9.18
2022-10-20T17:30:11.636Z,8.90
2022-10-20T17:33:01.302Z,7.53
2022-10-20T17:35:50.027Z,9.63
2022-10-20T17:38:38.361Z,7.85
2022-10-20T17:41:26.778Z,8.05
2022-10-20T17:44:15.296Z,6.20
2022-10-20T17:47:04.398Z,6.90
2022-10-20T17:49:54.031Z,9.50
2022-10-20T17:52:42.292Z,7.15
2022-10-20T17:55:31.190Z,7.30
2022-10-20T17:58:19.483Z,26.92
2022-10-20T18:01:11.989Z,46.80
2022-10-20T18:04:02.068Z,28.75
2022-10-20T18:06:51.809Z,13.15
2022-10-20T18:09:40.225Z,8.73
2022-10-20T18:12:28.578Z,7.70
2022-10-20T18:15:16.898Z,9.90
2022-10-20T18:18:05.283Z,14.93
2022-10-20T18:20:56.792Z,11.32
2022-10-20T18:23:48.176Z,12.68
2022-10-20T18:26:37.905Z,7.03
2022-10-20T18:29:26.748Z,7.90
2022-10-20T18:32:15.019Z,7.05
2022-10-20T18:35:03.386Z,8.20
2022-10-20T18:37:57.408Z,6.82
2022-10-20T18:40:47.134Z,7.38
2022-10-20T18:43:35.483Z,9.02
2022-10-20T18:46:24.142Z,11.30
2022-10-20T18:49:14.623Z,8.35
2022-10-20T18:52:03.388Z,7.68
2022-10-20T18:54:51.683Z,8.45
2022-10-20T18:57:41.399Z,11.73
2022-10-20T19:00:30.743Z,6.88
2022-10-20T19:03:19.085Z,8.07
2022-10-20T19:06:09.577Z,6.22
2022-10-20T19:08:59.672Z,6.22
2022-10-20T19:14:43.510Z,13.27
2022-10-20T19:17:33.392Z,8.95
2022-10-20T19:20:21.714Z,8.80
2022-10-20T19:23:10.005Z,11.73
2022-10-20T19:26:07.353Z,10.02
2022-10-20T19:28:59.629Z,11.65
2022-10-20T19:31:55.827Z,9.55
2022-10-20T19:34:45.880Z,7.93
2022-10-20T19:37:34.401Z,10.90
2022-10-20T19:40:24.969Z,10.77
2022-10-20T19:43:16.407Z,8.30
2022-10-20T19:46:06.692Z,10.50
2022-10-20T19:48:57.455Z,10.88
2022-10-20T19:51:45.842Z,11.90
2022-10-20T19:54:35.034Z,11.13
2022-10-20T19:57:23.384Z,8.73
2022-10-20T20:00:12.342Z,12.75
2022-10-20T20:03:00.568Z,8.23
2022-10-20T20:05:50.473Z,11.35
2022-10-20T20:08:39.018Z,8.85
2022-10-20T20:11:31.038Z,10.45
2022-10-20T20:14:20.639Z,11.93
2022-10-20T20:17:11.128Z,12.88
2022-10-20T20:19:59.851Z,13.20
2022-10-20T20:22:49.464Z,11.93
2022-10-20T20:25:38.386Z,11.63
2022-10-20T20:28:28.047Z,14.10
2022-10-20T20:31:17.611Z,12.43
2022-10-20T20:34:06.020Z,15.02
2022-10-20T20:36:54.314Z,11.98
2022-10-20T20:39:44.020Z,17.17
2022-10-20T20:42:32.413Z,17.55
2022-10-20T20:45:20.774Z,17.05
2022-10-20T20:48:09.080Z,19.40
2022-10-20T20:50:58.731Z,13.85
2022-10-20T20:53:47.141Z,19.13
2022-10-20T20:56:36.837Z,15.70
2022-10-20T20:59:25.149Z,15.40
2022-10-20T21:02:13.415Z,18.67
2022-10-20T21:05:01.706Z,18.80
2022-10-20T21:07:49.962Z,21.08
2022-10-20T21:10:38.673Z,16.70
2022-10-20T21:13:28.334Z,18.58
2022-10-20T21:16:19.557Z,18.90
2022-10-20T21:19:09.699Z,17.58
2022-10-20T21:21:58.434Z,15.90
2022-10-20T21:24:46.762Z,15.95
2022-10-20T21:27:35.087Z,15.32
2022-10-20T21:30:26.591Z,18.77
2022-10-20T21:33:14.869Z,17.23
2022-10-20T21:36:03.504Z,19.77
2022-10-20T21:38:52.232Z,19.88
2022-10-20T21:41:40.537Z,15.35
2022-10-20T21:44:29.023Z,17.85
2022-10-20T21:47:18.681Z,18.13
2022-10-20T21:50:07.367Z,19.13
2022-10-20T21:52:55.658Z,17.88
2022-10-20T21:55:43.935Z,17.25
2022-10-20T21:58:32.293Z,20.50
2022-10-20T22:01:23.056Z,23.38
2022-10-20T22:04:13.306Z,16.35
2022-10-20T22:07:01.606Z,21.83
2022-10-20T22:09:49.898Z,21.38
2022-10-20T22:12:38.193Z,20.90
2022-10-20T22:15:26.520Z,20.92
2022-10-20T22:18:14.833Z,24.65
2022-10-20T22:21:09.761Z,19.65
2022-10-20T22:24:01.366Z,20.95
2022-10-20T22:26:51.572Z,18.98
2022-10-20T22:29:39.888Z,20.45
2022-10-20T22:32:28.166Z,19.05
2022-10-20T22:35:16.606Z,19.33
2022-10-20T22:38:06.288Z,17.27
2022-10-20T22:41:00.126Z,19.67
2022-10-20T22:43:48.673Z,18.98
2022-10-20T22:46:36.964Z,22.52
2022-10-20T22:49:25.293Z,20.70
2022-10-20T22:52:13.581Z,20.75
2022-10-20T22:55:03.257Z,17.55
2022-10-20T22:57:53.016Z,19.60
2022-10-20T23:00:42.170Z,24.77
2022-10-20T23:03:30.550Z,18.48
2022-10-20T23:06:20.683Z,19.17
2022-10-20T23:09:09.160Z,17.57
2022-10-20T23:11:58.864Z,16.52
2022-10-20T23:14:47.252Z,14.90
2022-10-20T23:17:35.924Z,18.27
2022-10-20T23:20:24.517Z,19.77
2022-10-20T23:23:12.912Z,20.35
2022-10-20T23:26:03.836Z,18.45
2022-10-20T23:28:54.489Z,15.80
2022-10-20T23:31:42.805Z,23.38
2022-10-20T23:34:31.193Z,18.60
2022-10-20T23:37:21.045Z,18.58
2022-10-20T23:40:10.199Z,22.75
2022-10-20T23:42:58.506Z,19.58
2022-10-20T23:45:48.164Z,18.30
2022-10-20T23:48:36.487Z,17.80
2022-10-20T23:51:24.846Z,20.15
2022-10-20T23:54:13.121Z,19.95
2022-10-20T23:57:02.593Z,16.45
2022-10-20T23:59:50.865Z,19.13
